Time;durP1;ratioP1;P1;durP2;ratioP2;P2;SDS_P1;SDS_P2;PMS_P1;PMS_P2;Temp;Humidity;BMP_temperature;BMP_pressure;BME280_temperature;BME280_humidity;BME280_pressure;Samples;Min_cycle;Max_cycle;Signal;HPM_P1;HPM_P2
2024/02/12 00:00:57;;;;;;;14.20;11.57;;;;;;;;;;6260345;28;24834;-81
2024/02/12 00:03:58;;;;;;;14.48;11.07;;;;;;;;;;6263034;28;24427;-82
2024/02/12 00:07:00;;;;;;;14.85;11.35;;;;;;;;;;6262951;28;24426;-83
2024/02/12 00:10:05;;;;;;;24.80;17.85;;;;;;;;;;6266870;28;24438;-84
2024/02/12 00:13:07;;;;;;;26.95;17.88;;;;;;;;;;6270116;28;24463;-85
2024/02/12 00:16:09;;;;;;;34.30;22.10;;;;;;;;;;6268104;28;24570;-83
2024/02/12 00:19:11;;;;;;;29.07;19.13;;;;;;;;;;6266904;28;24477;-82
2024/02/12 00:22:13;;;;;;;37.15;23.45;;;;;;;;;;6266191;28;24415;-83
2024/02/12 00:25:16;;;;;;;40.17;24.23;;;;;;;;;;6263251;28;24454;-82
2024/02/12 00:28:17;;;;;;;28.90;18.95;;;;;;;;;;6265462;28;24480;-82
2024/02/12 00:31:20;;;;;;;20.98;15.10;;;;;;;;;;6263947;28;24478;-80
2024/02/12 00:34:23;;;;;;;17.48;12.93;;;;;;;;;;6263488;28;24427;-81
2024/02/12 00:37:25;;;;;;;17.85;13.60;;;;;;;;;;6264934;28;24814;-81
2024/02/12 00:40:28;;;;;;;16.40;13.00;;;;;;;;;;6266581;28;24660;-81
2024/02/12 00:43:31;;;;;;;16.95;13.20;;;;;;;;;;6264827;28;24825;-82
2024/02/12 00:46:32;;;;;;;16.55;13.15;;;;;;;;;;6266171;28;24419;-81
2024/02/12 00:49:33;;;;;;;18.53;13.73;;;;;;;;;;6267088;28;24411;-81
2024/02/12 00:52:35;;;;;;;17.42;13.85;;;;;;;;;;6265311;28;24798;-81
2024/02/12 00:55:39;;;;;;;20.45;15.38;;;;;;;;;;6262798;28;24412;-83
2024/02/12 00:58:41;;;;;;;20.17;15.25;;;;;;;;;;6264633;28;24432;-82
2024/02/12 01:01:44;;;;;;;17.83;14.43;;;;;;;;;;6265092;28;24484;-81
2024/02/12 01:04:46;;;;;;;18.35;14.52;;;;;;;;;;6268865;28;24412;-80
2024/02/12 01:07:47;;;;;;;20.15;13.95;;;;;;;;;;6269371;28;24423;-82
2024/02/12 01:10:50;;;;;;;16.95;13.63;;;;;;;;;;6271582;28;24494;-81
2024/02/12 01:13:52;;;;;;;18.38;13.93;;;;;;;;;;6272645;28;24454;-82
2024/02/12 01:16:55;;;;;;;17.42;13.50;;;;;;;;;;6267683;28;24665;-81
2024/02/12 01:19:56;;;;;;;18.20;13.68;;;;;;;;;;6268043;28;24424;-81
2024/02/12 01:22:58;;;;;;;18.07;13.93;;;;;;;;;;6267870;28;24412;-81
2024/02/12 01:26:01;;;;;;;17.40;13.63;;;;;;;;;;6268958;28;24451;-81
2024/02/12 01:29:03;;;;;;;18.52;14.18;;;;;;;;;;6267402;28;24462;-82
2024/02/12 01:32:06;;;;;;;18.77;15.00;;;;;;;;;;6269356;28;24469;-81
2024/02/12 01:35:08;;;;;;;20.83;15.32;;;;;;;;;;6270638;28;24439;-82
2024/02/12 01:38:11;;;;;;;20.67;15.33;;;;;;;;;;6269731;28;24439;-81
2024/02/12 01:41:16;;;;;;;19.43;14.43;;;;;;;;;;6270404;28;24571;-82
2024/02/12 01:44:18;;;;;;;19.20;14.45;;;;;;;;;;6266693;28;24411;-82
2024/02/12 01:47:19;;;;;;;19.17;14.18;;;;;;;;;;6270172;28;24411;-81
2024/02/12 01:50:21;;;;;;;19.95;14.82;;;;;;;;;;6270482;28;24481;-81
2024/02/12 01:53:23;;;;;;;18.83;14.43;;;;;;;;;;6267160;28;24426;-83
2024/02/12 01:56:29;;;;;;;21.33;14.57;;;;;;;;;;6268176;28;24468;-82
2024/02/12 01:59:31;;;;;;;19.75;15.10;;;;;;;;;;6266522;28;24423;-81
2024/02/12 02:02:33;;;;;;;20.30;14.95;;;;;;;;;;6265273;28;24431;-81
2024/02/12 02:05:35;;;;;;;21.67;15.35;;;;;;;;;;6270459;28;24807;-81
2024/02/12 02:08:37;;;;;;;21.77;14.60;;;;;;;;;;6267208;28;24434;-82
2024/02/12 02:11:40;;;;;;;18.92;14.40;;;;;;;;;;6261945;28;24427;-81
2024/02/12 02:14:42;;;;;;;19.85;14.55;;;;;;;;;;6267021;28;24430;-82
2024/02/12 02:17:44;;;;;;;19.75;14.77;;;;;;;;;;6270495;28;24818;-80
2024/02/12 02:20:45;;;;;;;21.95;16.33;;;;;;;;;;6268191;28;24415;-82
2024/02/12 02:23:47;;;;;;;21.70;16.20;;;;;;;;;;6266220;28;24424;-82
2024/02/12 02:26:49;;;;;;;22.40;16.48;;;;;;;;;;6264928;28;24427;-81
2024/02/12 02:29:51;;;;;;;22.03;16.73;;;;;;;;;;6269952;28;24440;-80
2024/02/12 02:32:52;;;;;;;23.40;17.35;;;;;;;;;;6269299;28;24415;-80
2024/02/12 02:35:54;;;;;;;25.13;18.23;;;;;;;;;;6268250;28;24858;-80
2024/02/12 02:39:01;;;;;;;27.33;19.15;;;;;;;;;;6266027;28;20741;-82
2024/02/12 02:42:05;;;;;;;27.02;19.45;;;;;;;;;;6271413;28;25014;-81
2024/02/12 02:45:07;;;;;;;30.95;20.77;;;;;;;;;;6265014;28;24446;-82
2024/02/12 02:48:09;;;;;;;32.55;21.65;;;;;;;;;;6266903;28;24412;-83
2024/02/12 02:51:10;;;;;;;33.70;21.60;;;;;;;;;;6266750;28;24420;-81
2024/02/12 02:54:13;;;;;;;32.30;20.43;;;;;;;;;;6266483;28;24535;-83
2024/02/12 02:57:18;;;;;;;33.63;20.55;;;;;;;;;;6267912;28;24694;-81
2024/02/12 03:00:19;;;;;;;33.80;20.15;;;;;;;;;;6269047;28;24411;-82
2024/02/12 03:03:22;;;;;;;30.90;19.17;;;;;;;;;;6267014;28;24451;-80
2024/02/12 03:06:24;;;;;;;32.08;20.15;;;;;;;;;;6265224;28;24926;-81
2024/02/12 03:09:25;;;;;;;31.35;19.38;;;;;;;;;;6264259;28;24427;-81
2024/02/12 03:12:30;;;;;;;34.05;19.60;;;;;;;;;;6267809;28;24611;-82
2024/02/12 03:15:34;;;;;;;30.17;20.15;;;;;;;;;;6265590;28;24860;-80
2024/02/12 03:18:35;;;;;;;30.37;19.47;;;;;;;;;;6265402;28;24469;-81
2024/02/12 03:21:37;;;;;;;31.80;19.80;;;;;;;;;;6263699;28;24628;-82
2024/02/12 03:24:38;;;;;;;32.88;20.58;;;;;;;;;;6266128;28;24819;-82
2024/02/12 03:27:42;;;;;;;34.50;21.40;;;;;;;;;;6265626;28;24428;-82
2024/02/12 03:30:43;;;;;;;33.58;21.70;;;;;;;;;;6266504;28;24821;-80
2024/02/12 03:33:49;;;;;;;33.27;22.53;;;;;;;;;;6265316;28;24431;-81
2024/02/12 03:36:50;;;;;;;34.10;22.70;;;;;;;;;;6259415;28;24442;-81
2024/02/12 03:39:53;;;;;;;35.35;22.40;;;;;;;;;;6261573;28;24631;-80
2024/02/12 03:42:56;;;;;;;38.65;23.67;;;;;;;;;;6268809;28;24423;-81
2024/02/12 03:45:57;;;;;;;41.83;24.73;;;;;;;;;;6261923;28;24616;-81
2024/02/12 04:02:16;;;;;;;45.17;24.75;;;;;;;;;;6265171;28;24416;-82
2024/02/12 04:05:17;;;;;;;45.40;24.67;;;;;;;;;;6265593;28;24423;-81
2024/02/12 04:08:19;;;;;;;42.40;23.93;;;;;;;;;;6267760;28;24475;-82
2024/02/12 04:11:21;;;;;;;44.42;24.63;;;;;;;;;;6264813;28;24475;-81
2024/02/12 04:14:24;;;;;;;46.67;24.30;;;;;;;;;;6262160;28;24423;-82
2024/02/12 04:17:25;;;;;;;48.75;24.63;;;;;;;;;;6263080;28;24647;-81
2024/02/12 04:20:27;;;;;;;50.88;23.60;;;;;;;;;;6265858;28;24431;-81
2024/02/12 04:23:28;;;;;;;49.13;22.65;;;;;;;;;;6262930;28;24422;-82
2024/02/12 04:26:30;;;;;;;48.72;22.40;;;;;;;;;;6265605;28;24412;-81
2024/02/12 04:29:33;;;;;;;48.35;22.13;;;;;;;;;;6266791;28;24455;-81
2024/02/12 04:32:35;;;;;;;50.20;22.65;;;;;;;;;;6266577;28;24493;-81
2024/02/12 04:35:37;;;;;;;52.83;22.60;;;;;;;;;;6267695;28;24427;-81
2024/02/12 04:38:38;;;;;;;55.55;24.25;;;;;;;;;;6263152;28;24416;-82
2024/02/12 04:41:40;;;;;;;55.57;24.40;;;;;;;;;;6268836;28;24449;-80
2024/02/12 04:44:43;;;;;;;53.30;23.02;;;;;;;;;;6270188;28;24423;-82
2024/02/12 04:47:45;;;;;;;50.90;21.67;;;;;;;;;;6270891;28;24821;-81
2024/02/12 04:50:47;;;;;;;55.42;23.27;;;;;;;;;;6270993;28;24423;-81
2024/02/12 04:53:48;;;;;;;54.50;23.58;;;;;;;;;;6270424;28;24424;-82
2024/02/12 04:56:50;;;;;;;59.92;24.77;;;;;;;;;;6270653;28;24428;-81
2024/02/12 04:59:52;;;;;;;60.97;24.00;;;;;;;;;;6271060;28;24443;-82
2024/02/12 05:02:54;;;;;;;60.47;24.13;;;;;;;;;;6270082;28;24450;-81
2024/02/12 05:05:57;;;;;;;62.10;25.23;;;;;;;;;;6270546;28;24427;-82
2024/02/12 05:08:58;;;;;;;66.53;25.25;;;;;;;;;;6272870;28;24430;-80
2024/02/12 05:12:00;;;;;;;69.40;26.55;;;;;;;;;;6267985;28;24431;-81
2024/02/12 05:15:03;;;;;;;69.72;26.48;;;;;;;;;;6269359;28;24438;-81
2024/02/12 05:22:32;;;;;;;67.03;25.45;;;;;;;;;;6269295;28;24427;-82
2024/02/12 05:24:48;;;;;;;70.22;28.30;;;;;;;;;;6270903;28;24415;-81
2024/02/12 05:27:49;;;;;;;63.00;27.10;;;;;;;;;;6270580;28;24432;-82
2024/02/12 05:30:52;;;;;;;66.43;27.50;;;;;;;;;;6269388;28;24431;-80
2024/02/12 05:33:54;;;;;;;62.50;25.63;;;;;;;;;;6270467;28;24439;-81
2024/02/12 05:36:55;;;;;;;58.53;24.90;;;;;;;;;;6270880;28;24439;-81
2024/02/12 05:39:59;;;;;;;63.30;26.27;;;;;;;;;;6269907;28;24447;-80
2024/02/12 05:43:01;;;;;;;60.05;25.80;;;;;;;;;;6270005;28;24551;-81
2024/02/12 05:46:05;;;;;;;56.55;24.77;;;;;;;;;;6264749;28;24830;-81
2024/02/12 05:49:07;;;;;;;55.22;24.83;;;;;;;;;;6268621;28;24455;-81
2024/02/12 05:52:08;;;;;;;52.85;24.10;;;;;;;;;;6270330;28;24446;-81
2024/02/12 05:55:10;;;;;;;54.75;24.75;;;;;;;;;;6265161;28;24435;-81
2024/02/12 05:58:12;;;;;;;55.00;24.58;;;;;;;;;;6270146;28;24443;-83
2024/02/12 06:01:15;;;;;;;52.15;23.20;;;;;;;;;;6265641;28;24490;-84
2024/02/12 06:04:16;;;;;;;53.60;23.60;;;;;;;;;;6267465;28;24556;-82
2024/02/12 06:07:18;;;;;;;52.22;22.92;;;;;;;;;;6269303;28;24447;-81
2024/02/12 06:10:19;;;;;;;52.00;22.88;;;;;;;;;;6268119;28;24961;-80
2024/02/12 06:13:21;;;;;;;48.85;23.25;;;;;;;;;;6269014;28;24447;-82
2024/02/12 06:16:24;;;;;;;47.00;22.40;;;;;;;;;;6267068;28;24443;-82
2024/02/12 06:19:25;;;;;;;48.53;23.23;;;;;;;;;;6268734;28;24412;-81
2024/02/12 06:22:27;;;;;;;47.35;22.42;;;;;;;;;;6269734;28;24412;-82
2024/02/12 06:25:28;;;;;;;45.53;21.77;;;;;;;;;;6265576;28;24600;-82
2024/02/12 06:28:30;;;;;;;41.95;21.20;;;;;;;;;;6266672;28;24562;-82
2024/02/12 06:31:33;;;;;;;36.45;20.33;;;;;;;;;;6265555;28;24418;-81
2024/02/12 06:34:34;;;;;;;37.22;20.50;;;;;;;;;;6267401;28;24470;-81
2024/02/12 06:37:36;;;;;;;33.15;18.60;;;;;;;;;;6268073;28;24526;-81
2024/02/12 06:40:37;;;;;;;29.00;17.20;;;;;;;;;;6267235;28;24408;-81
2024/02/12 06:43:41;;;;;;;28.23;17.30;;;;;;;;;;6266860;28;24483;-83
2024/02/12 06:46:46;;;;;;;28.80;17.33;;;;;;;;;;6266696;28;24411;-81
2024/02/12 06:49:48;;;;;;;28.67;16.92;;;;;;;;;;6264011;28;24506;-81
2024/02/12 06:52:49;;;;;;;27.65;16.83;;;;;;;;;;6267152;28;24416;-82
2024/02/12 06:55:51;;;;;;;27.63;17.42;;;;;;;;;;6265108;28;24420;-80
2024/02/12 06:58:52;;;;;;;28.85;17.33;;;;;;;;;;6266117;28;24833;-81
2024/02/12 07:01:56;;;;;;;28.67;17.73;;;;;;;;;;6265106;28;24492;-81
2024/02/12 07:04:58;;;;;;;28.48;17.83;;;;;;;;;;6266633;28;24714;-83
2024/02/12 07:07:59;;;;;;;25.90;16.88;;;;;;;;;;6264560;28;24431;-81
2024/02/12 07:11:01;;;;;;;29.98;18.23;;;;;;;;;;6264669;28;24427;-82
2024/02/12 07:14:03;;;;;;;29.85;17.65;;;;;;;;;;6265366;28;24421;-83
2024/02/12 07:17:06;;;;;;;31.92;18.20;;;;;;;;;;6265103;28;24502;-81
2024/02/12 07:20:09;;;;;;;28.10;18.35;;;;;;;;;;6267744;28;24424;-82
2024/02/12 07:23:10;;;;;;;33.10;18.92;;;;;;;;;;6266149;28;24531;-83
2024/02/12 07:26:11;;;;;;;31.90;18.35;;;;;;;;;;6263665;28;24454;-82
2024/02/12 07:29:13;;;;;;;31.25;18.92;;;;;;;;;;6266317;28;24427;-82
2024/02/12 07:32:16;;;;;;;33.50;19.45;;;;;;;;;;6267179;28;24508;-82
2024/02/12 07:35:17;;;;;;;33.97;19.40;;;;;;;;;;6266172;28;24850;-82
2024/02/12 07:38:19;;;;;;;37.47;20.15;;;;;;;;;;6266233;28;24431;-81
2024/02/12 07:41:20;;;;;;;35.85;19.60;;;;;;;;;;6265275;28;24411;-81
2024/02/12 07:44:22;;;;;;;34.77;19.50;;;;;;;;;;6263606;28;24878;-82
2024/02/12 07:47:25;;;;;;;35.90;19.65;;;;;;;;;;6268790;28;24411;-82
2024/02/12 07:50:27;;;;;;;38.83;21.88;;;;;;;;;;6264939;28;24457;-83
2024/02/12 07:53:29;;;;;;;43.25;24.33;;;;;;;;;;6267601;28;24427;-81
2024/02/12 07:56:30;;;;;;;33.53;20.73;;;;;;;;;;6265094;28;24448;-83
2024/02/12 07:59:31;;;;;;;31.00;18.10;;;;;;;;;;6264811;28;24424;-81
2024/02/12 08:02:34;;;;;;;30.55;17.40;;;;;;;;;;6264081;28;24426;-83
2024/02/12 08:05:37;;;;;;;30.92;17.05;;;;;;;;;;6266482;28;24424;-81
2024/02/12 08:08:38;;;;;;;29.17;17.50;;;;;;;;;;6264161;28;24439;-82
2024/02/12 08:11:40;;;;;;;31.45;18.38;;;;;;;;;;6263842;28;24416;-82
2024/02/12 08:14:41;;;;;;;28.73;17.67;;;;;;;;;;6265478;28;24423;-82
2024/02/12 08:17:44;;;;;;;26.02;15.88;;;;;;;;;;6262891;28;24423;-81
2024/02/12 08:20:46;;;;;;;22.58;14.52;;;;;;;;;;6260848;28;24824;-82
2024/02/12 08:23:48;;;;;;;21.27;13.73;;;;;;;;;;6264115;28;24424;-80
2024/02/12 08:26:50;;;;;;;18.20;12.20;;;;;;;;;;6265163;28;24420;-82
2024/02/12 08:29:52;;;;;;;18.08;12.23;;;;;;;;;;6266477;28;24833;-82
2024/02/12 08:32:55;;;;;;;17.33;12.15;;;;;;;;;;6263362;28;24579;-81
2024/02/12 08:35:58;;;;;;;16.55;11.93;;;;;;;;;;6263536;28;24437;-81
2024/02/12 08:38:59;;;;;;;21.10;14.18;;;;;;;;;;6263111;28;24917;-81
2024/02/12 08:42:00;;;;;;;18.10;12.40;;;;;;;;;;6261270;28;24423;-81
2024/02/12 08:45:02;;;;;;;18.17;11.93;;;;;;;;;;6260415;28;24428;-81
2024/02/12 08:48:06;;;;;;;19.42;13.35;;;;;;;;;;6262863;28;24861;-81
2024/02/12 08:51:08;;;;;;;19.97;13.87;;;;;;;;;;6267889;28;24474;-82
2024/02/12 08:54:10;;;;;;;21.17;14.05;;;;;;;;;;6267138;28;24833;-82
2024/02/12 08:57:14;;;;;;;22.35;14.52;;;;;;;;;;6266173;28;24420;-83
2024/02/12 09:00:18;;;;;;;20.87;14.40;;;;;;;;;;6262394;28;24834;-82
2024/02/12 09:03:21;;;;;;;20.48;13.90;;;;;;;;;;6263427;28;24615;-81
2024/02/12 09:06:22;;;;;;;23.00;15.02;;;;;;;;;;6264163;28;24434;-81
2024/02/12 09:09:24;;;;;;;23.17;14.77;;;;;;;;;;6263986;28;24819;-82
2024/02/12 09:12:27;;;;;;;23.92;15.23;;;;;;;;;;6266107;28;24419;-81
2024/02/12 09:15:29;;;;;;;22.73;14.80;;;;;;;;;;6264695;28;24510;-81
2024/02/12 09:18:35;;;;;;;22.93;15.13;;;;;;;;;;6264304;28;24850;-82
2024/02/12 09:21:38;;;;;;;25.80;15.93;;;;;;;;;;6268169;28;25099;-82
2024/02/12 09:24:41;;;;;;;23.80;15.30;;;;;;;;;;6268480;28;24414;-82
2024/02/12 09:27:45;;;;;;;23.15;14.70;;;;;;;;;;6269491;28;24435;-81
2024/02/12 09:30:47;;;;;;;22.85;14.48;;;;;;;;;;6268279;28;24412;-83
2024/02/12 09:33:50;;;;;;;24.13;15.77;;;;;;;;;;6270574;28;24427;-81
2024/02/12 09:36:52;;;;;;;27.23;17.00;;;;;;;;;;6267727;28;24513;-82
2024/02/12 09:39:53;;;;;;;25.58;16.52;;;;;;;;;;6266864;28;24446;-82
2024/02/12 09:42:56;;;;;;;30.85;17.58;;;;;;;;;;6270571;28;24431;-81
2024/02/12 09:45:58;;;;;;;28.13;17.13;;;;;;;;;;6268818;28;24428;-81
2024/02/12 09:49:01;;;;;;;26.65;17.20;;;;;;;;;;6268567;28;24412;-82
2024/02/12 09:52:04;;;;;;;26.75;17.65;;;;;;;;;;6267635;28;24420;-83
2024/02/12 09:55:06;;;;;;;27.05;16.98;;;;;;;;;;6267441;28;24490;-82
2024/02/12 09:58:07;;;;;;;26.63;17.80;;;;;;;;;;6265546;28;24437;-83
2024/02/12 10:01:10;;;;;;;27.85;18.77;;;;;;;;;;6264431;28;24452;-81
2024/02/12 10:04:13;;;;;;;27.27;18.67;;;;;;;;;;6270455;28;24451;-82
2024/02/12 10:07:15;;;;;;;27.08;18.33;;;;;;;;;;6265560;28;24442;-82
2024/02/12 10:10:17;;;;;;;27.40;19.02;;;;;;;;;;6266244;28;24427;-82
2024/02/12 10:13:19;;;;;;;26.77;18.00;;;;;;;;;;6263610;28;24450;-82
2024/02/12 10:16:21;;;;;;;26.03;18.00;;;;;;;;;;6268096;28;24682;-82
2024/02/12 10:19:24;;;;;;;28.50;19.27;;;;;;;;;;6264591;28;24451;-82
2024/02/12 10:22:26;;;;;;;28.95;19.63;;;;;;;;;;6269576;28;25250;-82
2024/02/12 10:25:28;;;;;;;26.60;18.48;;;;;;;;;;6267562;28;24415;-83
2024/02/12 10:28:30;;;;;;;24.35;17.25;;;;;;;;;;6267815;28;24474;-82
2024/02/12 10:31:31;;;;;;;23.65;17.63;;;;;;;;;;6263731;28;24580;-81
2024/02/12 10:34:37;;;;;;;24.98;18.75;;;;;;;;;;6266770;28;24422;-81
2024/02/12 10:37:38;;;;;;;23.08;16.98;;;;;;;;;;6267781;28;24450;-82
2024/02/12 10:40:48;;;;;;;23.52;16.98;;;;;;;;;;6268141;28;24426;-82
2024/02/12 10:43:51;;;;;;;23.23;16.98;;;;;;;;;;6263634;28;24423;-82
2024/02/12 10:46:53;;;;;;;20.83;16.38;;;;;;;;;;6267857;28;24596;-82
2024/02/12 10:49:59;;;;;;;19.80;14.65;;;;;;;;;;6265676;28;24525;-81
2024/02/12 10:53:01;;;;;;;20.48;15.20;;;;;;;;;;6265554;28;24416;-82
2024/02/12 10:56:02;;;;;;;20.42;15.43;;;;;;;;;;6265433;28;24426;-82
2024/02/12 10:59:04;;;;;;;21.27;15.75;;;;;;;;;;6265583;28;24447;-83
2024/02/12 11:02:08;;;;;;;20.05;15.00;;;;;;;;;;6267558;28;24619;-83
2024/02/12 11:05:13;;;;;;;19.50;15.00;;;;;;;;;;6264754;28;24535;-82
2024/02/12 11:08:15;;;;;;;17.88;14.10;;;;;;;;;;6264736;28;24522;-83
2024/02/12 11:11:18;;;;;;;17.53;14.20;;;;;;;;;;6265541;28;24411;-83
2024/02/12 11:14:19;;;;;;;17.70;14.38;;;;;;;;;;6265660;28;24424;-83
2024/02/12 11:17:22;;;;;;;23.47;18.20;;;;;;;;;;6266261;28;24423;-82
2024/02/12 11:20:26;;;;;;;17.77;14.73;;;;;;;;;;6268149;28;24434;-84
2024/02/12 11:23:30;;;;;;;17.33;14.32;;;;;;;;;;6263108;28;24488;-83
2024/02/12 11:26:33;;;;;;;17.27;13.98;;;;;;;;;;6265518;28;24425;-83
2024/02/12 11:29:41;;;;;;;15.35;12.55;;;;;;;;;;6266981;28;24818;-83
2024/02/12 11:32:44;;;;;;;15.52;12.60;;;;;;;;;;6265234;28;24992;-83
2024/02/12 11:35:48;;;;;;;15.75;12.85;;;;;;;;;;6263760;28;24434;-84
2024/02/12 11:38:50;;;;;;;18.17;13.70;;;;;;;;;;6265401;28;24424;-84
2024/02/12 11:41:51;;;;;;;14.48;12.10;;;;;;;;;;6263415;28;24679;-83
2024/02/12 11:44:53;;;;;;;15.05;12.93;;;;;;;;;;6262620;28;24436;-84
2024/02/12 11:48:04;;;;;;;17.45;13.60;;;;;;;;;;6264164;28;24426;-83
2024/02/12 11:51:08;;;;;;;18.20;15.10;;;;;;;;;;6266693;28;25065;-83
2024/02/12 11:54:11;;;;;;;16.30;13.82;;;;;;;;;;6264237;28;24545;-83
2024/02/12 11:57:12;;;;;;;15.48;12.93;;;;;;;;;;6263080;28;24458;-83
2024/02/12 12:00:17;;;;;;;15.82;13.55;;;;;;;;;;6264017;28;24655;-83
2024/02/12 12:03:19;;;;;;;17.03;13.63;;;;;;;;;;6266515;28;24849;-85
2024/02/12 12:06:23;;;;;;;16.63;13.68;;;;;;;;;;6261193;28;24431;-85
2024/02/12 12:09:24;;;;;;;16.45;13.98;;;;;;;;;;6261932;28;24495;-83
2024/02/12 12:12:25;;;;;;;18.80;15.02;;;;;;;;;;6266260;28;24805;-82
2024/02/12 12:15:28;;;;;;;15.65;13.73;;;;;;;;;;6266839;28;24424;-84
2024/02/12 12:18:30;;;;;;;14.82;12.95;;;;;;;;;;6265620;28;24523;-82
2024/02/12 12:21:34;;;;;;;17.00;13.85;;;;;;;;;;6263495;28;24432;-82
2024/02/12 12:24:35;;;;;;;17.23;14.30;;;;;;;;;;6265217;28;24584;-84
2024/02/12 12:27:37;;;;;;;16.88;13.90;;;;;;;;;;6264170;28;24474;-82
2024/02/12 12:30:39;;;;;;;17.80;14.02;;;;;;;;;;6266540;28;24420;-83
2024/02/12 12:33:42;;;;;;;15.17;12.47;;;;;;;;;;6264601;28;24427;-84
2024/02/12 12:36:47;;;;;;;16.13;13.23;;;;;;;;;;6262477;28;24423;-83
2024/02/12 12:39:48;;;;;;;15.85;13.20;;;;;;;;;;6265463;28;24434;-83
2024/02/12 12:42:50;;;;;;;15.95;12.57;;;;;;;;;;6264605;28;24435;-83
2024/02/12 12:45:52;;;;;;;15.05;12.27;;;;;;;;;;6265329;28;24419;-83
2024/02/12 12:48:54;;;;;;;13.73;11.75;;;;;;;;;;6263957;28;24423;-81
2024/02/12 12:51:57;;;;;;;13.07;10.70;;;;;;;;;;6263333;28;24499;-83
2024/02/12 12:54:59;;;;;;;14.63;11.48;;;;;;;;;;6264087;28;24428;-83
2024/02/12 12:58:01;;;;;;;12.23;9.37;;;;;;;;;;6267272;28;24502;-82
2024/02/12 13:01:05;;;;;;;10.82;9.15;;;;;;;;;;6270592;28;24546;-82
2024/02/12 13:04:09;;;;;;;12.70;10.30;;;;;;;;;;6267732;28;24523;-83
2024/02/12 13:07:14;;;;;;;12.35;9.85;;;;;;;;;;6267738;28;24866;-83
2024/02/12 13:10:16;;;;;;;12.20;10.00;;;;;;;;;;6270583;28;24450;-84
2024/02/12 13:13:17;;;;;;;11.35;9.30;;;;;;;;;;6269824;28;24849;-84
2024/02/12 13:16:19;;;;;;;11.65;9.23;;;;;;;;;;6269876;28;24453;-85
2024/02/12 13:19:22;;;;;;;12.93;10.32;;;;;;;;;;6271575;28;24432;-86
2024/02/12 13:22:25;;;;;;;11.30;9.52;;;;;;;;;;6269757;28;24555;-85
2024/02/12 13:25:27;;;;;;;11.57;9.30;;;;;;;;;;6268372;28;24604;-84
2024/02/12 13:28:29;;;;;;;10.30;8.57;;;;;;;;;;6275791;28;24419;-83
2024/02/12 13:31:30;;;;;;;10.82;8.43;;;;;;;;;;6269313;28;24514;-83
2024/02/12 13:34:32;;;;;;;10.95;8.52;;;;;;;;;;6267896;28;24485;-83
2024/02/12 13:37:34;;;;;;;10.85;8.88;;;;;;;;;;6265613;28;24483;-84
2024/02/12 13:40:36;;;;;;;10.63;8.57;;;;;;;;;;6267109;28;24420;-83
2024/02/12 13:43:38;;;;;;;10.82;8.65;;;;;;;;;;6269253;28;24868;-85
2024/02/12 13:46:40;;;;;;;11.73;9.85;;;;;;;;;;6268734;28;24411;-83
2024/02/12 13:49:43;;;;;;;12.98;10.18;;;;;;;;;;6268189;28;24483;-85
2024/02/12 13:52:47;;;;;;;13.27;10.15;;;;;;;;;;6266756;28;24420;-86
2024/02/12 13:55:51;;;;;;;14.18;11.25;;;;;;;;;;6269003;28;24427;-84
2024/02/12 13:58:52;;;;;;;11.65;9.32;;;;;;;;;;6267852;28;24829;-83
2024/02/12 14:01:56;;;;;;;12.70;9.90;;;;;;;;;;6267416;28;24427;-84
2024/02/12 14:04:59;;;;;;;11.30;9.27;;;;;;;;;;6270102;28;24427;-84
2024/02/12 14:08:04;;;;;;;10.73;9.10;;;;;;;;;;6267308;28;24531;-84
2024/02/12 14:11:06;;;;;;;11.63;9.55;;;;;;;;;;6269677;28;24607;-83
2024/02/12 14:14:07;;;;;;;11.23;9.30;;;;;;;;;;6268646;28;24434;-82
2024/02/12 14:17:11;;;;;;;9.93;8.27;;;;;;;;;;6268183;28;24439;-85
2024/02/12 14:20:16;;;;;;;10.32;8.38;;;;;;;;;;6268526;28;24435;-83
2024/02/12 14:23:19;;;;;;;12.43;9.45;;;;;;;;;;6267282;28;24439;-85
2024/02/12 14:26:21;;;;;;;10.30;8.77;;;;;;;;;;6261118;28;24428;-84
2024/02/12 14:29:23;;;;;;;9.77;7.85;;;;;;;;;;6271146;28;24427;-84
2024/02/12 14:32:24;;;;;;;11.80;9.27;;;;;;;;;;6269814;28;24431;-84
2024/02/12 14:35:26;;;;;;;10.93;8.90;;;;;;;;;;6269481;28;24489;-86
2024/02/12 14:38:28;;;;;;;70.53;45.95;;;;;;;;;;6268341;28;24641;-85
2024/02/12 14:41:30;;;;;;;72.38;45.33;;;;;;;;;;6267642;28;24816;-88
2024/02/12 14:44:31;;;;;;;73.53;43.67;;;;;;;;;;6269404;28;24450;-86
2024/02/12 14:47:33;;;;;;;123.53;69.83;;;;;;;;;;6269891;28;24422;-86
2024/02/12 14:50:35;;;;;;;48.23;30.10;;;;;;;;;;6269809;28;24636;-88
2024/02/12 14:53:38;;;;;;;69.83;40.37;;;;;;;;;;6267539;28;24503;-85
2024/02/12 14:56:39;;;;;;;32.80;21.08;;;;;;;;;;6266471;28;24611;-84
2024/02/12 14:59:41;;;;;;;19.00;13.25;;;;;;;;;;6268107;28;24811;-84
2024/02/12 15:02:43;;;;;;;18.05;14.02;;;;;;;;;;6267204;28;24815;-84
2024/02/12 15:05:44;;;;;;;15.77;11.90;;;;;;;;;;6265590;28;24818;-84
2024/02/12 15:08:47;;;;;;;15.00;11.38;;;;;;;;;;6261657;28;24445;-84
2024/02/12 15:11:48;;;;;;;13.95;11.10;;;;;;;;;;6264729;28;24419;-84
2024/02/12 15:14:51;;;;;;;14.43;11.55;;;;;;;;;;6266601;28;24694;-85
2024/02/12 15:17:53;;;;;;;16.42;12.05;;;;;;;;;;6262422;28;24420;-84
2024/02/12 15:20:54;;;;;;;14.82;11.70;;;;;;;;;;6262592;28;24498;-83
2024/02/12 15:23:57;;;;;;;15.38;11.23;;;;;;;;;;6265679;28;24426;-83
2024/02/12 15:26:59;;;;;;;17.33;12.48;;;;;;;;;;6265347;28;24419;-82
2024/02/12 15:30:00;;;;;;;16.33;11.67;;;;;;;;;;6264387;28;24449;-84
2024/02/12 15:33:04;;;;;;;15.15;11.75;;;;;;;;;;6264736;28;24433;-84
2024/02/12 15:36:06;;;;;;;22.87;14.30;;;;;;;;;;6267228;28;25150;-84
2024/02/12 15:39:10;;;;;;;16.57;12.60;;;;;;;;;;6264741;28;24431;-83
2024/02/12 15:42:11;;;;;;;16.83;12.63;;;;;;;;;;6263657;28;24491;-84
2024/02/12 15:45:13;;;;;;;17.08;12.70;;;;;;;;;;6261388;28;24420;-83
2024/02/12 15:48:15;;;;;;;18.02;13.77;;;;;;;;;;6265631;28;24542;-83
2024/02/12 15:51:16;;;;;;;20.27;14.60;;;;;;;;;;6260887;28;24474;-83
2024/02/12 15:54:19;;;;;;;18.52;13.95;;;;;;;;;;6269462;28;24438;-83
2024/02/12 15:57:24;;;;;;;18.52;14.02;;;;;;;;;;6263978;28;24506;-84
2024/02/12 16:00:29;;;;;;;18.35;13.55;;;;;;;;;;6266833;28;24437;-84
2024/02/12 16:03:32;;;;;;;17.55;13.60;;;;;;;;;;6264493;28;24458;-83
2024/02/12 16:06:33;;;;;;;17.87;13.57;;;;;;;;;;6261974;28;24419;-84
2024/02/12 16:09:37;;;;;;;16.50;12.73;;;;;;;;;;6262290;28;24508;-83
2024/02/12 16:12:40;;;;;;;18.10;13.77;;;;;;;;;;6265910;28;24418;-85
2024/02/12 16:15:44;;;;;;;37.20;25.70;;;;;;;;;;6267768;28;24435;-85
2024/02/12 16:18:46;;;;;;;114.07;64.13;;;;;;;;;;6264655;28;24431;-85
2024/02/12 16:21:48;;;;;;;85.97;50.35;;;;;;;;;;6268059;28;24427;-86
2024/02/12 16:24:51;;;;;;;62.17;38.22;;;;;;;;;;6271459;28;24431;-86
2024/02/12 16:27:53;;;;;;;67.20;39.92;;;;;;;;;;6264455;28;24502;-84
2024/02/12 16:30:59;;;;;;;36.20;23.25;;;;;;;;;;6267499;28;24896;-83
2024/02/12 16:34:00;;;;;;;24.65;17.13;;;;;;;;;;6267702;28;24523;-83
2024/02/12 16:37:04;;;;;;;19.52;14.95;;;;;;;;;;6267527;28;24435;-82
2024/02/12 16:40:11;;;;;;;19.10;15.17;;;;;;;;;;6271258;28;24461;-83
2024/02/12 16:43:13;;;;;;;19.48;14.80;;;;;;;;;;6268459;28;24443;-83
2024/02/12 16:46:14;;;;;;;19.30;15.00;;;;;;;;;;6271029;28;24490;-83
2024/02/12 16:49:16;;;;;;;19.40;14.77;;;;;;;;;;6267370;28;24834;-83
2024/02/12 16:52:17;;;;;;;19.55;15.50;;;;;;;;;;6268185;28;24425;-83
2024/02/12 16:55:20;;;;;;;21.75;15.65;;;;;;;;;;6270994;28;24436;-83
2024/02/12 16:58:22;;;;;;;23.60;15.85;;;;;;;;;;6266579;28;24628;-84
2024/02/12 17:01:24;;;;;;;20.87;15.97;;;;;;;;;;6266653;28;24503;-83
2024/02/12 17:04:25;;;;;;;23.27;17.50;;;;;;;;;;6265330;28;24505;-83
2024/02/12 17:07:30;;;;;;;21.85;16.20;;;;;;;;;;6264323;28;24410;-83
2024/02/12 17:10:33;;;;;;;21.65;15.32;;;;;;;;;;6262106;28;24419;-83
2024/02/12 17:13:37;;;;;;;21.10;16.17;;;;;;;;;;6266302;28;24595;-83
2024/02/12 17:16:39;;;;;;;22.17;16.20;;;;;;;;;;6269448;28;24412;-82
2024/02/12 17:19:41;;;;;;;21.15;15.50;;;;;;;;;;6263018;28;24419;-83
2024/02/12 17:22:42;;;;;;;21.13;15.50;;;;;;;;;;6268210;28;24428;-83
2024/02/12 17:25:45;;;;;;;20.83;16.17;;;;;;;;;;6266390;28;24884;-84
2024/02/12 17:28:47;;;;;;;20.40;15.25;;;;;;;;;;6267638;28;24415;-83
2024/02/12 17:31:48;;;;;;;21.85;16.75;;;;;;;;;;6265330;28;24483;-84
2024/02/12 17:34:50;;;;;;;22.17;16.52;;;;;;;;;;6263165;28;24671;-83
2024/02/12 17:37:51;;;;;;;20.70;15.90;;;;;;;;;;6264779;28;24864;-82
2024/02/12 17:40:54;;;;;;;22.13;16.27;;;;;;;;;;6263649;28;24435;-82
2024/02/12 17:43:57;;;;;;;21.38;16.55;;;;;;;;;;6265714;28;24438;-82
2024/02/12 17:46:58;;;;;;;21.87;16.27;;;;;;;;;;6267983;28;24798;-84
2024/02/12 17:50:00;;;;;;;22.40;16.47;;;;;;;;;;6266040;28;24430;-83
2024/02/12 17:53:01;;;;;;;22.70;16.58;;;;;;;;;;6267737;28;24524;-82
2024/02/12 17:56:05;;;;;;;21.67;15.80;;;;;;;;;;6266302;28;24493;-82
2024/02/12 17:59:08;;;;;;;21.85;16.33;;;;;;;;;;6268826;28;24435;-82